Poindexter, Kentucky
Current Conditions -  °F | °C
As of 11:35 AM on Tuesday 21 Oct 2014 (Local Time) from KIOB Reporting Station
Haze Haze  
Wind Chill: 55°   Ceiling: 5000
Heat Index: 55°   Visibility: 3mi
Dew Point: 45°   Wind: 9mph
Humidity: 67%   Direction: 360°N
Pressure: 30.04"   Gusts: NA
Location:  38.4145°N, 84.2859°W
Report Text: KIOB 211535Z AUTO 36008KT 3SM HZ SCT020 BKN050 13/07 A3004 RMK AO2
Loading
Personal Weather Stations






























Interactive Weather Map
Tropical Storm Tracking
New forecast layout! Learn more

10-Day Weather Forecast

Advertisements
Track Severe Weather on mobile